sensor_id;sensor_type;location;lat;lon;timestamp;P1;durP1;ratioP1;P2;durP2;ratioP2
14400;SDS011;7285;50.894;5.462;2022-08-23T00:01:17;0.30;;;0.30;;
14400;SDS011;7285;50.894;5.462;2022-08-23T00:03:46;0.50;;;0.50;;
14400;SDS011;7285;50.894;5.462;2022-08-23T00:06:14;0.30;;;0.30;;
14400;SDS011;7285;50.894;5.462;2022-08-23T00:08:42;0.33;;;0.33;;
14400;SDS011;7285;50.894;5.462;2022-08-23T00:11:24;0.40;;;0.40;;
14400;SDS011;7285;50.894;5.462;2022-08-23T00:13:53;0.40;;;0.40;;
14400;SDS011;7285;50.894;5.462;2022-08-23T00:16:20;0.30;;;0.30;;
14400;SDS011;7285;50.894;5.462;2022-08-23T00:18:47;0.30;;;0.30;;
14400;SDS011;7285;50.894;5.462;2022-08-23T00:21:14;0.40;;;0.40;;
14400;SDS011;7285;50.894;5.462;2022-08-23T00:23:42;0.70;;;0.70;;
14400;SDS011;7285;50.894;5.462;2022-08-23T00:26:09;0.43;;;0.43;;
14400;SDS011;7285;50.894;5.462;2022-08-23T00:28:37;0.30;;;0.30;;
14400;SDS011;7285;50.894;5.462;2022-08-23T00:31:04;0.30;;;0.30;;
14400;SDS011;7285;50.894;5.462;2022-08-23T00:33:31;0.40;;;0.40;;
14400;SDS011;7285;50.894;5.462;2022-08-23T00:35:59;0.40;;;0.40;;
14400;SDS011;7285;50.894;5.462;2022-08-23T00:38:26;0.40;;;0.40;;
14400;SDS011;7285;50.894;5.462;2022-08-23T00:40:53;0.40;;;0.40;;
14400;SDS011;7285;50.894;5.462;2022-08-23T00:43:22;0.60;;;0.60;;
14400;SDS011;7285;50.894;5.462;2022-08-23T00:46:14;0.30;;;0.30;;
14400;SDS011;7285;50.894;5.462;2022-08-23T00:49:06;0.40;;;0.40;;
14400;SDS011;7285;50.894;5.462;2022-08-23T00:51:37;0.40;;;0.40;;
14400;SDS011;7285;50.894;5.462;2022-08-23T00:54:10;0.40;;;0.40;;
14400;SDS011;7285;50.894;5.462;2022-08-23T00:56:39;0.53;;;0.53;;
14400;SDS011;7285;50.894;5.462;2022-08-23T00:59:07;0.40;;;0.40;;
14400;SDS011;7285;50.894;5.462;2022-08-23T01:01:35;0.30;;;0.30;;
14400;SDS011;7285;50.894;5.462;2022-08-23T01:04:03;0.30;;;0.30;;
14400;SDS011;7285;50.894;5.462;2022-08-23T01:06:31;0.40;;;0.40;;
14400;SDS011;7285;50.894;5.462;2022-08-23T01:09:04;0.40;;;0.40;;
14400;SDS011;7285;50.894;5.462;2022-08-23T01:11:35;0.40;;;0.40;;
14400;SDS011;7285;50.894;5.462;2022-08-23T01:14:06;0.40;;;0.40;;
14400;SDS011;7285;50.894;5.462;2022-08-23T01:16:39;0.40;;;0.40;;
14400;SDS011;7285;50.894;5.462;2022-08-23T01:19:13;0.40;;;0.40;;
14400;SDS011;7285;50.894;5.462;2022-08-23T01:21:45;0.50;;;0.50;;
14400;SDS011;7285;50.894;5.462;2022-08-23T01:24:19;0.30;;;0.30;;
14400;SDS011;7285;50.894;5.462;2022-08-23T01:26:46;0.30;;;0.30;;
14400;SDS011;7285;50.894;5.462;2022-08-23T01:29:14;0.40;;;0.40;;
14400;SDS011;7285;50.894;5.462;2022-08-23T01:31:42;0.30;;;0.30;;
14400;SDS011;7285;50.894;5.462;2022-08-23T01:34:10;0.30;;;0.30;;
14400;SDS011;7285;50.894;5.462;2022-08-23T01:36:38;0.30;;;0.30;;
14400;SDS011;7285;50.894;5.462;2022-08-23T01:39:07;0.30;;;0.30;;
14400;SDS011;7285;50.894;5.462;2022-08-23T01:41:36;0.37;;;0.37;;
14400;SDS011;7285;50.894;5.462;2022-08-23T01:44:03;0.40;;;0.40;;
14400;SDS011;7285;50.894;5.462;2022-08-23T01:46:31;0.43;;;0.43;;
14400;SDS011;7285;50.894;5.462;2022-08-23T01:48:58;0.40;;;0.40;;
14400;SDS011;7285;50.894;5.462;2022-08-23T01:51:24;0.40;;;0.40;;
14400;SDS011;7285;50.894;5.462;2022-08-23T01:53:51;0.30;;;0.30;;
14400;SDS011;7285;50.894;5.462;2022-08-23T01:56:19;0.40;;;0.40;;
14400;SDS011;7285;50.894;5.462;2022-08-23T01:58:47;0.80;;;0.80;;
14400;SDS011;7285;50.894;5.462;2022-08-23T02:01:15;0.50;;;0.50;;
14400;SDS011;7285;50.894;5.462;2022-08-23T02:03:43;0.40;;;0.40;;
14400;SDS011;7285;50.894;5.462;2022-08-23T02:06:10;0.40;;;0.40;;
14400;SDS011;7285;50.894;5.462;2022-08-23T02:08:37;0.40;;;0.40;;
14400;SDS011;7285;50.894;5.462;2022-08-23T02:11:19;0.53;;;0.53;;
14400;SDS011;7285;50.894;5.462;2022-08-23T02:13:49;0.40;;;0.40;;
14400;SDS011;7285;50.894;5.462;2022-08-23T02:16:21;0.40;;;0.40;;
14400;SDS011;7285;50.894;5.462;2022-08-23T02:18:49;0.40;;;0.40;;
14400;SDS011;7285;50.894;5.462;2022-08-23T02:21:17;0.40;;;0.40;;
14400;SDS011;7285;50.894;5.462;2022-08-23T02:23:44;0.50;;;0.50;;
14400;SDS011;7285;50.894;5.462;2022-08-23T02:26:12;0.40;;;0.40;;
14400;SDS011;7285;50.894;5.462;2022-08-23T02:28:38;0.30;;;0.30;;
14400;SDS011;7285;50.894;5.462;2022-08-23T02:31:07;0.40;;;0.40;;
14400;SDS011;7285;50.894;5.462;2022-08-23T02:33:34;0.40;;;0.40;;
14400;SDS011;7285;50.894;5.462;2022-08-23T02:36:01;0.40;;;0.40;;
14400;SDS011;7285;50.894;5.462;2022-08-23T02:38:28;0.50;;;0.50;;
14400;SDS011;7285;50.894;5.462;2022-08-23T02:40:55;0.63;;;0.63;;
14400;SDS011;7285;50.894;5.462;2022-08-23T02:43:22;0.40;;;0.40;;
14400;SDS011;7285;50.894;5.462;2022-08-23T02:45:49;0.60;;;0.60;;
14400;SDS011;7285;50.894;5.462;2022-08-23T02:48:18;0.40;;;0.40;;
14400;SDS011;7285;50.894;5.462;2022-08-23T02:50:46;0.40;;;0.40;;
14400;SDS011;7285;50.894;5.462;2022-08-23T02:53:14;0.50;;;0.50;;
14400;SDS011;7285;50.894;5.462;2022-08-23T02:55:43;0.57;;;0.57;;
14400;SDS011;7285;50.894;5.462;2022-08-23T02:58:11;0.40;;;0.40;;
14400;SDS011;7285;50.894;5.462;2022-08-23T03:00:38;0.40;;;0.40;;
14400;SDS011;7285;50.894;5.462;2022-08-23T03:03:05;0.40;;;0.40;;
14400;SDS011;7285;50.894;5.462;2022-08-23T03:05:33;0.40;;;0.40;;
14400;SDS011;7285;50.894;5.462;2022-08-23T03:08:00;0.40;;;0.40;;
14400;SDS011;7285;50.894;5.462;2022-08-23T03:10:27;0.40;;;0.40;;
14400;SDS011;7285;50.894;5.462;2022-08-23T03:12:55;0.50;;;0.50;;
14400;SDS011;7285;50.894;5.462;2022-08-23T03:15:22;0.57;;;0.57;;
14400;SDS011;7285;50.894;5.462;2022-08-23T03:17:49;0.40;;;0.40;;
14400;SDS011;7285;50.894;5.462;2022-08-23T03:20:16;0.47;;;0.47;;
14400;SDS011;7285;50.894;5.462;2022-08-23T03:22:44;0.60;;;0.60;;
14400;SDS011;7285;50.894;5.462;2022-08-23T03:25:11;0.50;;;0.50;;
14400;SDS011;7285;50.894;5.462;2022-08-23T03:27:38;0.40;;;0.40;;
14400;SDS011;7285;50.894;5.462;2022-08-23T03:30:06;0.40;;;0.40;;
14400;SDS011;7285;50.894;5.462;2022-08-23T03:32:33;0.57;;;0.57;;
14400;SDS011;7285;50.894;5.462;2022-08-23T03:35:00;0.40;;;0.40;;
14400;SDS011;7285;50.894;5.462;2022-08-23T03:37:27;0.50;;;0.50;;
14400;SDS011;7285;50.894;5.462;2022-08-23T03:39:55;0.60;;;0.60;;
14400;SDS011;7285;50.894;5.462;2022-08-23T03:42:22;0.50;;;0.50;;
14400;SDS011;7285;50.894;5.462;2022-08-23T03:44:50;0.40;;;0.40;;
14400;SDS011;7285;50.894;5.462;2022-08-23T03:47:17;0.50;;;0.50;;
14400;SDS011;7285;50.894;5.462;2022-08-23T03:49:44;0.40;;;0.40;;
14400;SDS011;7285;50.894;5.462;2022-08-23T03:52:11;0.40;;;0.40;;
14400;SDS011;7285;50.894;5.462;2022-08-23T03:54:38;0.50;;;0.50;;
14400;SDS011;7285;50.894;5.462;2022-08-23T03:57:07;0.50;;;0.50;;
14400;SDS011;7285;50.894;5.462;2022-08-23T03:59:35;0.40;;;0.40;;
14400;SDS011;7285;50.894;5.462;2022-08-23T04:02:04;0.43;;;0.43;;
14400;SDS011;7285;50.894;5.462;2022-08-23T04:04:31;0.40;;;0.40;;
14400;SDS011;7285;50.894;5.462;2022-08-23T04:06:58;0.60;;;0.60;;
14400;SDS011;7285;50.894;5.462;2022-08-23T04:09:25;0.40;;;0.40;;
14400;SDS011;7285;50.894;5.462;2022-08-23T04:11:52;0.50;;;0.50;;
14400;SDS011;7285;50.894;5.462;2022-08-23T04:14:21;0.50;;;0.50;;
14400;SDS011;7285;50.894;5.462;2022-08-23T04:16:48;0.47;;;0.47;;
14400;SDS011;7285;50.894;5.462;2022-08-23T04:19:15;0.40;;;0.40;;
14400;SDS011;7285;50.894;5.462;2022-08-23T04:21:48;0.50;;;0.50;;
14400;SDS011;7285;50.894;5.462;2022-08-23T04:24:17;0.40;;;0.40;;
14400;SDS011;7285;50.894;5.462;2022-08-23T04:26:45;0.50;;;0.50;;
14400;SDS011;7285;50.894;5.462;2022-08-23T04:29:12;0.50;;;0.50;;
14400;SDS011;7285;50.894;5.462;2022-08-23T04:31:42;0.50;;;0.50;;
14400;SDS011;7285;50.894;5.462;2022-08-23T04:34:10;0.40;;;0.40;;
14400;SDS011;7285;50.894;5.462;2022-08-23T04:36:39;0.40;;;0.40;;
14400;SDS011;7285;50.894;5.462;2022-08-23T04:39:07;0.40;;;0.40;;
14400;SDS011;7285;50.894;5.462;2022-08-23T04:41:35;0.40;;;0.40;;
14400;SDS011;7285;50.894;5.462;2022-08-23T04:44:19;0.40;;;0.40;;
14400;SDS011;7285;50.894;5.462;2022-08-23T04:46:47;0.37;;;0.37;;
14400;SDS011;7285;50.894;5.462;2022-08-23T04:49:14;0.40;;;0.40;;
14400;SDS011;7285;50.894;5.462;2022-08-23T04:51:41;0.37;;;0.37;;
14400;SDS011;7285;50.894;5.462;2022-08-23T04:54:08;0.40;;;0.40;;
14400;SDS011;7285;50.894;5.462;2022-08-23T04:56:35;0.40;;;0.40;;
14400;SDS011;7285;50.894;5.462;2022-08-23T04:59:03;0.50;;;0.50;;
14400;SDS011;7285;50.894;5.462;2022-08-23T05:01:30;0.50;;;0.50;;
14400;SDS011;7285;50.894;5.462;2022-08-23T05:04:00;1.13;;;0.97;;
14400;SDS011;7285;50.894;5.462;2022-08-23T05:06:27;0.30;;;0.30;;
14400;SDS011;7285;50.894;5.462;2022-08-23T05:08:55;0.30;;;0.30;;
14400;SDS011;7285;50.894;5.462;2022-08-23T05:11:23;0.40;;;0.40;;
14400;SDS011;7285;50.894;5.462;2022-08-23T05:13:50;0.30;;;0.30;;
14400;SDS011;7285;50.894;5.462;2022-08-23T05:16:17;0.40;;;0.40;;
14400;SDS011;7285;50.894;5.462;2022-08-23T05:18:44;0.30;;;0.30;;
14400;SDS011;7285;50.894;5.462;2022-08-23T05:21:16;0.50;;;0.50;;
14400;SDS011;7285;50.894;5.462;2022-08-23T05:23:46;0.30;;;0.30;;
14400;SDS011;7285;50.894;5.462;2022-08-23T05:26:13;0.50;;;0.50;;
14400;SDS011;7285;50.894;5.462;2022-08-23T05:28:41;0.30;;;0.30;;
14400;SDS011;7285;50.894;5.462;2022-08-23T05:31:10;0.30;;;0.30;;
14400;SDS011;7285;50.894;5.462;2022-08-23T05:33:39;0.40;;;0.40;;
14400;SDS011;7285;50.894;5.462;2022-08-23T05:36:07;0.30;;;0.30;;
14400;SDS011;7285;50.894;5.462;2022-08-23T05:38:37;0.23;;;0.23;;
14400;SDS011;7285;50.894;5.462;2022-08-23T05:41:04;0.30;;;0.30;;
14400;SDS011;7285;50.894;5.462;2022-08-23T05:43:31;0.40;;;0.40;;
14400;SDS011;7285;50.894;5.462;2022-08-23T05:45:59;0.30;;;0.30;;
14400;SDS011;7285;50.894;5.462;2022-08-23T05:48:27;0.37;;;0.37;;
14400;SDS011;7285;50.894;5.462;2022-08-23T05:50:56;0.20;;;0.20;;
14400;SDS011;7285;50.894;5.462;2022-08-23T05:53:23;0.30;;;0.30;;
14400;SDS011;7285;50.894;5.462;2022-08-23T05:55:52;0.40;;;0.40;;
14400;SDS011;7285;50.894;5.462;2022-08-23T05:58:18;0.30;;;0.30;;
14400;SDS011;7285;50.894;5.462;2022-08-23T06:00:45;0.23;;;0.23;;
14400;SDS011;7285;50.894;5.462;2022-08-23T06:03:12;0.40;;;0.40;;
14400;SDS011;7285;50.894;5.462;2022-08-23T06:05:39;0.20;;;0.20;;
14400;SDS011;7285;50.894;5.462;2022-08-23T06:08:06;0.20;;;0.20;;
14400;SDS011;7285;50.894;5.462;2022-08-23T06:10:34;0.30;;;0.30;;
14400;SDS011;7285;50.894;5.462;2022-08-23T06:13:03;0.30;;;0.30;;
14400;SDS011;7285;50.894;5.462;2022-08-23T06:15:30;0.20;;;0.20;;
14400;SDS011;7285;50.894;5.462;2022-08-23T06:17:57;0.30;;;0.30;;
14400;SDS011;7285;50.894;5.462;2022-08-23T06:20:24;0.30;;;0.30;;
14400;SDS011;7285;50.894;5.462;2022-08-23T06:22:51;0.30;;;0.30;;
14400;SDS011;7285;50.894;5.462;2022-08-23T06:25:18;0.30;;;0.30;;
14400;SDS011;7285;50.894;5.462;2022-08-23T06:27:45;0.30;;;0.30;;
14400;SDS011;7285;50.894;5.462;2022-08-23T06:30:14;0.23;;;0.23;;
14400;SDS011;7285;50.894;5.462;2022-08-23T06:32:41;0.20;;;0.20;;
14400;SDS011;7285;50.894;5.462;2022-08-23T06:35:10;0.27;;;0.27;;
14400;SDS011;7285;50.894;5.462;2022-08-23T06:37:37;0.40;;;0.40;;
14400;SDS011;7285;50.894;5.462;2022-08-23T06:40:04;0.20;;;0.20;;
14400;SDS011;7285;50.894;5.462;2022-08-23T06:42:32;0.20;;;0.20;;
14400;SDS011;7285;50.894;5.462;2022-08-23T06:44:59;0.30;;;0.30;;
14400;SDS011;7285;50.894;5.462;2022-08-23T06:47:27;0.20;;;0.20;;
14400;SDS011;7285;50.894;5.462;2022-08-23T06:49:55;0.20;;;0.20;;
14400;SDS011;7285;50.894;5.462;2022-08-23T06:52:22;0.20;;;0.20;;
14400;SDS011;7285;50.894;5.462;2022-08-23T06:54:49;0.20;;;0.20;;
14400;SDS011;7285;50.894;5.462;2022-08-23T06:57:16;0.30;;;0.30;;
14400;SDS011;7285;50.894;5.462;2022-08-23T06:59:44;0.30;;;0.30;;
14400;SDS011;7285;50.894;5.462;2022-08-23T07:02:11;0.50;;;0.50;;
14400;SDS011;7285;50.894;5.462;2022-08-23T07:04:41;0.57;;;0.57;;
14400;SDS011;7285;50.894;5.462;2022-08-23T07:07:08;0.27;;;0.27;;
14400;SDS011;7285;50.894;5.462;2022-08-23T07:09:35;0.20;;;0.20;;
14400;SDS011;7285;50.894;5.462;2022-08-23T07:12:02;0.27;;;0.27;;
14400;SDS011;7285;50.894;5.462;2022-08-23T07:14:31;0.30;;;0.30;;
14400;SDS011;7285;50.894;5.462;2022-08-23T07:16:59;0.30;;;0.30;;
14400;SDS011;7285;50.894;5.462;2022-08-23T07:19:28;0.30;;;0.30;;
14400;SDS011;7285;50.894;5.462;2022-08-23T07:21:58;0.33;;;0.33;;
14400;SDS011;7285;50.894;5.462;2022-08-23T07:24:27;0.37;;;0.37;;
14400;SDS011;7285;50.894;5.462;2022-08-23T07:26:55;0.30;;;0.30;;
14400;SDS011;7285;50.894;5.462;2022-08-23T07:29:22;0.30;;;0.30;;
14400;SDS011;7285;50.894;5.462;2022-08-23T07:31:50;0.30;;;0.30;;
14400;SDS011;7285;50.894;5.462;2022-08-23T07:34:19;0.20;;;0.20;;
14400;SDS011;7285;50.894;5.462;2022-08-23T07:36:46;0.40;;;0.40;;
14400;SDS011;7285;50.894;5.462;2022-08-23T07:39:16;0.30;;;0.30;;
14400;SDS011;7285;50.894;5.462;2022-08-23T07:41:44;0.20;;;0.20;;
14400;SDS011;7285;50.894;5.462;2022-08-23T07:44:12;0.20;;;0.20;;
14400;SDS011;7285;50.894;5.462;2022-08-23T07:46:41;0.20;;;0.20;;
14400;SDS011;7285;50.894;5.462;2022-08-23T07:49:09;0.20;;;0.20;;
14400;SDS011;7285;50.894;5.462;2022-08-23T07:51:38;0.20;;;0.20;;
14400;SDS011;7285;50.894;5.462;2022-08-23T07:54:07;0.60;;;0.60;;
14400;SDS011;7285;50.894;5.462;2022-08-23T07:56:38;0.20;;;0.20;;
14400;SDS011;7285;50.894;5.462;2022-08-23T07:59:05;0.20;;;0.20;;
14400;SDS011;7285;50.894;5.462;2022-08-23T08:01:33;0.20;;;0.20;;
14400;SDS011;7285;50.894;5.462;2022-08-23T08:04:01;0.30;;;0.30;;
14400;SDS011;7285;50.894;5.462;2022-08-23T08:06:33;0.20;;;0.20;;
14400;SDS011;7285;50.894;5.462;2022-08-23T08:09:04;0.20;;;0.20;;
14400;SDS011;7285;50.894;5.462;2022-08-23T08:11:32;0.20;;;0.20;;
14400;SDS011;7285;50.894;5.462;2022-08-23T08:14:02;0.20;;;0.20;;
14400;SDS011;7285;50.894;5.462;2022-08-23T08:16:31;0.10;;;0.10;;
14400;SDS011;7285;50.894;5.462;2022-08-23T08:19:01;0.20;;;0.20;;
14400;SDS011;7285;50.894;5.462;2022-08-23T08:21:29;0.27;;;0.27;;
14400;SDS011;7285;50.894;5.462;2022-08-23T08:23:56;0.20;;;0.20;;
14400;SDS011;7285;50.894;5.462;2022-08-23T08:26:24;0.20;;;0.20;;
14400;SDS011;7285;50.894;5.462;2022-08-23T08:28:52;0.10;;;0.10;;
14400;SDS011;7285;50.894;5.462;2022-08-23T08:31:21;0.17;;;0.17;;
14400;SDS011;7285;50.894;5.462;2022-08-23T08:33:49;0.10;;;0.10;;
14400;SDS011;7285;50.894;5.462;2022-08-23T08:36:26;0.10;;;0.10;;
14400;SDS011;7285;50.894;5.462;2022-08-23T08:38:59;0.20;;;0.20;;
14400;SDS011;7285;50.894;5.462;2022-08-23T08:41:29;0.37;;;0.30;;
14400;SDS011;7285;50.894;5.462;2022-08-23T08:44:21;0.10;;;0.10;;
14400;SDS011;7285;50.894;5.462;2022-08-23T08:46:59;0.17;;;0.17;;
14400;SDS011;7285;50.894;5.462;2022-08-23T08:49:32;0.10;;;0.10;;
14400;SDS011;7285;50.894;5.462;2022-08-23T08:52:08;0.10;;;0.10;;
14400;SDS011;7285;50.894;5.462;2022-08-23T08:54:40;0.10;;;0.10;;
14400;SDS011;7285;50.894;5.462;2022-08-23T08:57:10;0.13;;;0.13;;
14400;SDS011;7285;50.894;5.462;2022-08-23T08:59:42;0.10;;;0.10;;
14400;SDS011;7285;50.894;5.462;2022-08-23T09:02:17;0.10;;;0.10;;
14400;SDS011;7285;50.894;5.462;2022-08-23T09:04:45;0.40;;;0.40;;
14400;SDS011;7285;50.894;5.462;2022-08-23T09:07:14;0.17;;;0.17;;
14400;SDS011;7285;50.894;5.462;2022-08-23T09:09:54;0.10;;;0.10;;
14400;SDS011;7285;50.894;5.462;2022-08-23T09:12:34;0.10;;;0.10;;
14400;SDS011;7285;50.894;5.462;2022-08-23T09:15:19;0.20;;;0.20;;
14400;SDS011;7285;50.894;5.462;2022-08-23T09:20:37;0.03;;;0.03;;
14400;SDS011;7285;50.894;5.462;2022-08-23T09:23:07;0.00;;;0.00;;
14400;SDS011;7285;50.894;5.462;2022-08-23T09:25:38;0.10;;;0.10;;
14400;SDS011;7285;50.894;5.462;2022-08-23T09:28:05;0.10;;;0.10;;
14400;SDS011;7285;50.894;5.462;2022-08-23T09:30:49;0.35;;;0.35;;
14400;SDS011;7285;50.894;5.462;2022-08-23T09:33:21;0.10;;;0.10;;
14400;SDS011;7285;50.894;5.462;2022-08-23T09:38:49;0.10;;;0.10;;
14400;SDS011;7285;50.894;5.462;2022-08-23T09:41:18;0.00;;;0.00;;
14400;SDS011;7285;50.894;5.462;2022-08-23T09:43:49;0.00;;;0.00;;
14400;SDS011;7285;50.894;5.462;2022-08-23T09:46:23;0.00;;;0.00;;
14400;SDS011;7285;50.894;5.462;2022-08-23T09:48:53;0.00;;;0.00;;
14400;SDS011;7285;50.894;5.462;2022-08-23T09:51:23;0.08;;;0.08;;
14400;SDS011;7285;50.894;5.462;2022-08-23T09:54:02;0.10;;;0.10;;
14400;SDS011;7285;50.894;5.462;2022-08-23T09:56:33;0.00;;;0.00;;
14400;SDS011;7285;50.894;5.462;2022-08-23T09:59:18;0.10;;;0.10;;
14400;SDS011;7285;50.894;5.462;2022-08-23T10:01:47;0.00;;;0.00;;
14400;SDS011;7285;50.894;5.462;2022-08-23T10:04:20;0.25;;;0.25;;
14400;SDS011;7285;50.894;5.462;2022-08-23T10:06:49;0.00;;;0.00;;
14400;SDS011;7285;50.894;5.462;2022-08-23T10:09:21;0.10;;;0.10;;
14400;SDS011;7285;50.894;5.462;2022-08-23T10:11:49;0.10;;;0.10;;
14400;SDS011;7285;50.894;5.462;2022-08-23T10:14:18;0.10;;;0.10;;
14400;SDS011;7285;50.894;5.462;2022-08-23T10:16:51;0.05;;;0.05;;
14400;SDS011;7285;50.894;5.462;2022-08-23T10:19:32;0.00;;;0.00;;
14400;SDS011;7285;50.894;5.462;2022-08-23T10:22:08;0.10;;;0.10;;
14400;SDS011;7285;50.894;5.462;2022-08-23T10:24:44;0.00;;;0.00;;
14400;SDS011;7285;50.894;5.462;2022-08-23T10:27:19;0.00;;;0.00;;
14400;SDS011;7285;50.894;5.462;2022-08-23T10:30:10;0.00;;;0.00;;
14400;SDS011;7285;50.894;5.462;2022-08-23T10:32:44;0.10;;;0.10;;
14400;SDS011;7285;50.894;5.462;2022-08-23T10:35:26;0.00;;;0.00;;
14400;SDS011;7285;50.894;5.462;2022-08-23T10:38:00;0.00;;;0.00;;
14400;SDS011;7285;50.894;5.462;2022-08-23T10:40:39;0.00;;;0.00;;
14400;SDS011;7285;50.894;5.462;2022-08-23T10:43:13;0.00;;;0.00;;
14400;SDS011;7285;50.894;5.462;2022-08-23T10:45:50;0.08;;;0.08;;
14400;SDS011;7285;50.894;5.462;2022-08-23T10:48:21;0.25;;;0.17;;
14400;SDS011;7285;50.894;5.462;2022-08-23T10:50:55;0.10;;;0.10;;
14400;SDS011;7285;50.894;5.462;2022-08-23T10:53:36;0.00;;;0.00;;
14400;SDS011;7285;50.894;5.462;2022-08-23T10:56:10;0.22;;;0.22;;
14400;SDS011;7285;50.894;5.462;2022-08-23T10:58:44;0.00;;;0.00;;
14400;SDS011;7285;50.894;5.462;2022-08-23T11:01:14;0.00;;;0.00;;
14400;SDS011;7285;50.894;5.462;2022-08-23T11:03:46;0.20;;;0.20;;
14400;SDS011;7285;50.894;5.462;2022-08-23T11:06:25;0.05;;;0.05;;
14400;SDS011;7285;50.894;5.462;2022-08-23T11:12:27;0.00;;;0.00;;
14400;SDS011;7285;50.894;5.462;2022-08-23T11:15:04;0.10;;;0.10;;
14400;SDS011;7285;50.894;5.462;2022-08-23T11:17:40;0.00;;;0.00;;
14400;SDS011;7285;50.894;5.462;2022-08-23T11:26:06;0.00;;;0.00;;
14400;SDS011;7285;50.894;5.462;2022-08-23T11:28:37;1.02;;;0.73;;
14400;SDS011;7285;50.894;5.462;2022-08-23T11:33:51;0.00;;;0.00;;
14400;SDS011;7285;50.894;5.462;2022-08-23T11:36:27;0.00;;;0.00;;
14400;SDS011;7285;50.894;5.462;2022-08-23T11:39:07;0.00;;;0.00;;
14400;SDS011;7285;50.894;5.462;2022-08-23T11:41:58;0.00;;;0.00;;
14400;SDS011;7285;50.894;5.462;2022-08-23T11:44:32;0.00;;;0.00;;
14400;SDS011;7285;50.894;5.462;2022-08-23T11:47:01;0.03;;;0.03;;
14400;SDS011;7285;50.894;5.462;2022-08-23T11:49:51;0.00;;;0.00;;
14400;SDS011;7285;50.894;5.462;2022-08-23T11:53:02;0.00;;;0.00;;
14400;SDS011;7285;50.894;5.462;2022-08-23T11:55:51;0.00;;;0.00;;
14400;SDS011;7285;50.894;5.462;2022-08-23T11:58:29;0.00;;;0.00;;
14400;SDS011;7285;50.894;5.462;2022-08-23T12:01:08;0.00;;;0.00;;
14400;SDS011;7285;50.894;5.462;2022-08-23T12:03:40;0.00;;;0.00;;
14400;SDS011;7285;50.894;5.462;2022-08-23T12:06:37;0.00;;;0.00;;
14400;SDS011;7285;50.894;5.462;2022-08-23T12:09:10;0.08;;;0.08;;
14400;SDS011;7285;50.894;5.462;2022-08-23T12:14:47;0.00;;;0.00;;
14400;SDS011;7285;50.894;5.462;2022-08-23T12:20:34;0.00;;;0.00;;
14400;SDS011;7285;50.894;5.462;2022-08-23T12:23:04;0.00;;;0.00;;
14400;SDS011;7285;50.894;5.462;2022-08-23T12:25:38;0.00;;;0.00;;
14400;SDS011;7285;50.894;5.462;2022-08-23T12:28:09;0.00;;;0.00;;
14400;SDS011;7285;50.894;5.462;2022-08-23T12:30:50;0.00;;;0.00;;
14400;SDS011;7285;50.894;5.462;2022-08-23T12:33:25;0.00;;;0.00;;
14400;SDS011;7285;50.894;5.462;2022-08-23T12:36:05;0.00;;;0.00;;
14400;SDS011;7285;50.894;5.462;2022-08-23T12:38:38;0.00;;;0.00;;
14400;SDS011;7285;50.894;5.462;2022-08-23T12:41:15;0.00;;;0.00;;
14400;SDS011;7285;50.894;5.462;2022-08-23T12:43:55;0.00;;;0.00;;
14400;SDS011;7285;50.894;5.462;2022-08-23T12:46:28;0.15;;;0.15;;
14400;SDS011;7285;50.894;5.462;2022-08-23T12:48:57;0.00;;;0.00;;
14400;SDS011;7285;50.894;5.462;2022-08-23T12:51:24;0.00;;;0.00;;
14400;SDS011;7285;50.894;5.462;2022-08-23T12:53:51;0.00;;;0.00;;
14400;SDS011;7285;50.894;5.462;2022-08-23T12:56:19;0.00;;;0.00;;
14400;SDS011;7285;50.894;5.462;2022-08-23T12:58:50;0.00;;;0.00;;
14400;SDS011;7285;50.894;5.462;2022-08-23T13:01:22;0.00;;;0.00;;
14400;SDS011;7285;50.894;5.462;2022-08-23T13:03:52;0.00;;;0.00;;
14400;SDS011;7285;50.894;5.462;2022-08-23T13:06:23;0.00;;;0.00;;
14400;SDS011;7285;50.894;5.462;2022-08-23T13:08:53;0.00;;;0.00;;
14400;SDS011;7285;50.894;5.462;2022-08-23T13:11:28;0.10;;;0.10;;
14400;SDS011;7285;50.894;5.462;2022-08-23T13:13:57;0.00;;;0.00;;
14400;SDS011;7285;50.894;5.462;2022-08-23T13:16:28;0.05;;;0.05;;
14400;SDS011;7285;50.894;5.462;2022-08-23T13:19:09;0.00;;;0.00;;
14400;SDS011;7285;50.894;5.462;2022-08-23T13:21:41;0.00;;;0.00;;
14400;SDS011;7285;50.894;5.462;2022-08-23T13:27:09;0.00;;;0.00;;
14400;SDS011;7285;50.894;5.462;2022-08-23T13:29:51;0.00;;;0.00;;
14400;SDS011;7285;50.894;5.462;2022-08-23T13:32:25;0.00;;;0.00;;
14400;SDS011;7285;50.894;5.462;2022-08-23T13:35:03;0.00;;;0.00;;
14400;SDS011;7285;50.894;5.462;2022-08-23T13:37:48;0.00;;;0.00;;
14400;SDS011;7285;50.894;5.462;2022-08-23T13:40:18;0.00;;;0.00;;
14400;SDS011;7285;50.894;5.462;2022-08-23T13:42:48;0.00;;;0.00;;
14400;SDS011;7285;50.894;5.462;2022-08-23T13:45:19;0.20;;;0.20;;
14400;SDS011;7285;50.894;5.462;2022-08-23T13:47:54;0.00;;;0.00;;
14400;SDS011;7285;50.894;5.462;2022-08-23T13:50:24;0.03;;;0.03;;
14400;SDS011;7285;50.894;5.462;2022-08-23T13:52:52;0.00;;;0.00;;
14400;SDS011;7285;50.894;5.462;2022-08-23T13:55:20;0.00;;;0.00;;
14400;SDS011;7285;50.894;5.462;2022-08-23T13:57:47;0.00;;;0.00;;
14400;SDS011;7285;50.894;5.462;2022-08-23T14:00:14;0.00;;;0.00;;
14400;SDS011;7285;50.894;5.462;2022-08-23T14:02:42;0.00;;;0.00;;
14400;SDS011;7285;50.894;5.462;2022-08-23T14:05:14;0.00;;;0.00;;
14400;SDS011;7285;50.894;5.462;2022-08-23T14:07:43;0.00;;;0.00;;
14400;SDS011;7285;50.894;5.462;2022-08-23T14:10:11;0.00;;;0.00;;
14400;SDS011;7285;50.894;5.462;2022-08-23T14:12:39;0.00;;;0.00;;
14400;SDS011;7285;50.894;5.462;2022-08-23T14:15:10;0.00;;;0.00;;
14400;SDS011;7285;50.894;5.462;2022-08-23T14:17:39;0.00;;;0.00;;
14400;SDS011;7285;50.894;5.462;2022-08-23T14:20:08;0.00;;;0.00;;
14400;SDS011;7285;50.894;5.462;2022-08-23T14:22:38;0.15;;;0.03;;
14400;SDS011;7285;50.894;5.462;2022-08-23T14:25:06;0.00;;;0.00;;
14400;SDS011;7285;50.894;5.462;2022-08-23T14:27:35;0.00;;;0.00;;
14400;SDS011;7285;50.894;5.462;2022-08-23T14:30:05;0.10;;;0.10;;
14400;SDS011;7285;50.894;5.462;2022-08-23T14:32:33;0.00;;;0.00;;
14400;SDS011;7285;50.894;5.462;2022-08-23T14:35:02;0.00;;;0.00;;
14400;SDS011;7285;50.894;5.462;2022-08-23T14:37:30;0.00;;;0.00;;
14400;SDS011;7285;50.894;5.462;2022-08-23T14:39:58;0.00;;;0.00;;
14400;SDS011;7285;50.894;5.462;2022-08-23T14:42:25;0.00;;;0.00;;
14400;SDS011;7285;50.894;5.462;2022-08-23T14:44:52;0.00;;;0.00;;
14400;SDS011;7285;50.894;5.462;2022-08-23T14:47:19;0.00;;;0.00;;
14400;SDS011;7285;50.894;5.462;2022-08-23T14:49:46;0.00;;;0.00;;
14400;SDS011;7285;50.894;5.462;2022-08-23T14:52:13;0.00;;;0.00;;
14400;SDS011;7285;50.894;5.462;2022-08-23T14:54:40;0.00;;;0.00;;
14400;SDS011;7285;50.894;5.462;2022-08-23T14:57:09;0.00;;;0.00;;
14400;SDS011;7285;50.894;5.462;2022-08-23T14:59:36;0.00;;;0.00;;
14400;SDS011;7285;50.894;5.462;2022-08-23T15:02:03;0.00;;;0.00;;
14400;SDS011;7285;50.894;5.462;2022-08-23T15:04:33;0.00;;;0.00;;
14400;SDS011;7285;50.894;5.462;2022-08-23T15:07:00;0.00;;;0.00;;
14400;SDS011;7285;50.894;5.462;2022-08-23T15:09:28;0.00;;;0.00;;
14400;SDS011;7285;50.894;5.462;2022-08-23T15:11:55;0.00;;;0.00;;
14400;SDS011;7285;50.894;5.462;2022-08-23T15:14:23;0.00;;;0.00;;
14400;SDS011;7285;50.894;5.462;2022-08-23T15:16:50;0.00;;;0.00;;
14400;SDS011;7285;50.894;5.462;2022-08-23T15:19:17;0.00;;;0.00;;
14400;SDS011;7285;50.894;5.462;2022-08-23T15:21:44;0.00;;;0.00;;
14400;SDS011;7285;50.894;5.462;2022-08-23T15:24:11;0.00;;;0.00;;
14400;SDS011;7285;50.894;5.462;2022-08-23T15:26:38;0.00;;;0.00;;
14400;SDS011;7285;50.894;5.462;2022-08-23T15:29:05;0.00;;;0.00;;
14400;SDS011;7285;50.894;5.462;2022-08-23T15:31:33;0.00;;;0.00;;
14400;SDS011;7285;50.894;5.462;2022-08-23T15:34:00;0.00;;;0.00;;
14400;SDS011;7285;50.894;5.462;2022-08-23T15:36:27;0.00;;;0.00;;
14400;SDS011;7285;50.894;5.462;2022-08-23T15:38:55;0.15;;;0.15;;
14400;SDS011;7285;50.894;5.462;2022-08-23T15:41:22;0.00;;;0.00;;
14400;SDS011;7285;50.894;5.462;2022-08-23T15:43:49;0.00;;;0.00;;
14400;SDS011;7285;50.894;5.462;2022-08-23T15:46:17;0.00;;;0.00;;